Latest Coastal Weather Observations for Weipa

IDQ60701

Issued at 4:12 am EST Thursday 8 December 2016 (issued every 10 minutes, with the page automatically refreshed every 10 minutes)

About coastal observations | Map of coastal stations | Coastal observations for QLD | Marine services | Other Formats
Station Details ID: 027045 Name: WEIPA AERO Lat: -12.68 Lon: 141.92 Height: 17.96 m
Data from the previous 72 hours. | See also: Recent months at Weipa
Date/Time
EST
Temp
°C
Wind Pressure Rain since
9am
mm
Weather Cloud Vis
km
Sea
Height
m
Swell
Dir  Spd
kts
Gust
kts
hPa Trend Height
m
Period
s
Dir
08/04:00am 24.0 CALM 0 0 1007.5 - 0.2 - - 10 - - - -
08/03:30am 24.1 CALM 0 0 1007.3 - 0.2 - - 10 - - - -
08/03:00am 24.4 CALM 0 0 1007.1 - 0.2 - - 10 - - - -
08/02:30am 24.6 NW 2 3 1007.5 - 0.2 - - 10 - - - -
08/02:00am 25.9 E 4 5 1007.7 - 0.2 - - 10 - - - -
08/01:30am 26.2 ENE 3 4 1008.1 - 0.2 - - 10 - - - -
08/01:00am 26.7 E 4 6 1008.5 - 0.2 - - 10 - - - -
08/12:30am 27.0 E 5 7 1008.8 - 0.2 - - 10 - - - -
08/12:00am 27.4 E 3 4 1008.9 - 0.2 - - 10 - - - -
 
Date/Time
EST
Temp
°C
Wind Pressure Rain since
9am
mm
Weather Cloud Vis
km
Sea
Height
m
Swell
Dir  Spd
kts
Gust
kts
hPa Trend Height
m
Period
s
Dir
07/11:30pm 27.8 ENE 5 7 1009.4 - 0.2 - - 10 - - - -
07/11:00pm 28.3 NE 6 9 1009.5 - 0.2 - - 10 - - - -
07/10:30pm 28.5 NE 4 7 1009.6 - 0.2 - - 10 - - - -
07/10:00pm 28.5 NE 3 4 1009.5 - 0.2 - Partly cloudy 10 - - - -
07/09:30pm 28.7 NE 3 4 1009.2 - 0.2 - Partly cloudy 10 - - - -
07/09:00pm 29.5 NNE 2 3 1008.5 - 0.2 - Partly cloudy 10 - - - -
07/08:30pm 29.8 WNW 3 5 1008.4 - 0.2 - Partly cloudy 10 - - - -
07/08:00pm 29.9 WNW 5 7 1008.0 - 0.2 - Cloudy 10 - - - -
07/07:30pm 30.0 WNW 4 6 1007.5 - 0.2 - Partly cloudy 10 - - - -
07/07:00pm 30.8 WNW 4 9 1007.0 - 0.2 - Partly cloudy 10 - - - -
07/06:30pm 31.4 WSW 4 8 1006.2 - 0.2 - Partly cloudy 10 - - - -
07/06:00pm 32.2 SW 5 10 1005.5 - 0.2 - Mostly clear 9 - - - -
07/05:30pm 33.0 WSW 7 13 1005.6 - 0.2 - - 10 - - - -
07/05:00pm 33.8 W 6 12 1005.3 - 0.2 - - 10 - - - -
07/04:30pm 34.0 W 7 12 1005.4 - 0.0 - Partly cloudy 10 - - - -
07/04:00pm 34.2 W 8 13 1005.4 - 0.0 - Partly cloudy 10 - - - -
07/03:30pm 33.9 W 9 17 1005.6 - 0.0 - Partly cloudy 10 - - - -
07/03:00pm 35.5 N 6 12 1005.7 - 0.0 - Mostly clear 10 - - - -
07/02:30pm 36.4 SSW 5 10 1006.3 - 0.0 - - 10 - - - -
07/02:00pm 35.8 SE 7 13 1006.7 - 0.0 - - 10 - - - -
07/01:30pm 35.1 S 7 13 1007.3 - 0.0 - Partly cloudy 10 - - - -
07/01:00pm 34.2 E 7 15 1007.9 - 0.0 - - 10 - - - -
07/12:30pm 33.7 ESE 8 14 1008.3 - 0.0 - - 10 - - - -
07/12:00pm 33.4 E 8 16 1008.5 - 0.0 - - 10 - - - -
07/11:30am 33.8 ESE 8 14 1009.2 - 0.0 - - 10 - - - -
07/11:00am 32.7 ENE 9 14 1009.5 - 0.0 - - 10 - - - -
07/10:30am 31.8 ESE 9 14 1010.0 - 0.0 - - 10 - - - -
07/10:00am 30.8 ESE 7 12 1010.2 - 0.0 - - 10 - - - -
07/09:30am 29.7 E 8 13 1010.5 - 0.0 - - 10 - - - -
07/09:00am 29.3 E 10 15 1010.5 F 0.0 Haze Mostly clear 30 - - - -
07/08:30am 28.2 ESE 8 13 1010.7 - 0.0 - - 10 - - - -
07/08:00am 27.2 ESE 8 12 1010.6 - 0.0 - - 10 - - - -
07/07:30am 26.2 SSE 3 5 1010.6 - 0.0 - - 10 - - - -
07/07:00am 24.9 SSE 2 3 1010.5 - 0.0 - - 10 - - - -
07/06:30am 23.3 CALM 0 0 1010.3 - 0.0 - - 10 - - - -
07/06:00am 23.0 CALM 0 0 1009.7 - 0.0 - - 10 - - - -
07/05:30am 22.9 SSE 1 3 1009.3 - 0.0 - - 10 - - - -
07/05:00am 23.2 CALM 0 2 1008.9 - 0.0 - - 10 - - - -
07/04:30am 23.4 CALM 0 0 1008.6 - 0.0 - - 10 - - - -
07/04:00am 23.8 CALM 0 0 1008.4 - 0.0 - - 10 - - - -
07/03:30am 24.7 CALM 0 0 1008.4 - 0.0 - - 10 - - - -
07/03:00am 25.0 ENE 2 4 1008.1 - 0.0 - - 10 - - - -
07/02:30am 25.3 ENE 3 5 1008.0 - 0.0 - - 10 - - - -
07/02:00am 25.9 E 3 5 1008.1 - 0.0 - - 10 - - - -
07/01:30am 26.3 E 5 7 1008.1 - 0.0 - - 10 - - - -
07/01:00am 26.6 E 5 10 1008.2 - 0.0 - - 10 - - - -
07/12:30am 26.9 E 7 10 1008.7 - 0.0 - - 10 - - - -
07/12:00am 27.2 E 5 7 1008.9 - 0.0 - - 10 - - - -
 
Date/Time
EST
Temp
°C
Wind Pressure Rain since
9am
mm
Weather Cloud Vis
km
Sea
Height
m
Swell
Dir  Spd
kts
Gust
kts
hPa Trend Height
m
Period
s
Dir
06/11:30pm 27.6 E 8 12 1009.3 - 0.0 - - 10 - - - -
06/11:00pm 28.1 E 6 10 1009.4 - 0.0 - - 10 - - - -
06/10:30pm 28.7 E 7 9 1009.3 - 0.0 - - 10 - - - -
06/10:00pm 29.2 E 7 10 1009.2 - 0.0 - - 10 - - - -
06/09:30pm 29.8 ENE 8 13 1009.0 - 0.0 - - 10 - - - -
06/09:00pm 30.4 E 6 12 1008.4 - 0.0 - Cloudy 10 - - - -
06/08:30pm 30.8 E 7 11 1008.2 - 0.0 - Partly cloudy 10 - - - -
06/08:00pm 29.6 N 1 3 1008.0 - 0.0 - - 10 - - - -
06/07:30pm 29.4 NW 3 5 1007.5 - 0.0 - Partly cloudy 10 - - - -
06/07:00pm 29.7 WNW 6 9 1007.0 - 0.0 - - 10 - - - -
06/06:30pm 31.0 WNW 6 10 1006.4 - 0.0 - Partly cloudy 10 - - - -
06/06:00pm 32.8 WSW 5 9 1005.7 - 0.0 - Mostly clear 10 - - - -
06/05:30pm 33.3 WSW 6 11 1005.6 - 0.0 - Partly cloudy 10 - - - -
06/05:00pm 34.5 W 7 10 1005.4 - 0.0 - Partly cloudy 10 - - - -
06/04:30pm 34.4 WNW 7 13 1005.4 - 0.0 - Partly cloudy 10 - - - -
06/04:00pm 37.0 NE 6 11 1005.3 - 0.0 - Partly cloudy 10 - - - -
06/03:30pm 36.5 E 7 12 1005.6 - 0.0 - - 10 - - - -
06/03:00pm 36.5 ENE 7 12 1005.7 - 0.0 - Partly cloudy 10 - - - -
06/02:30pm 36.4 ESE 8 14 1006.2 - 0.0 - Partly cloudy 10 - - - -
06/02:00pm 35.5 E 6 9 1006.8 - 0.0 - Partly cloudy 10 - - - -
06/01:30pm 35.0 E 12 18 1007.4 - 0.0 - Partly cloudy 10 - - - -
06/01:00pm 35.0 ENE 9 15 1008.0 - 0.0 - - 10 - - - -
06/12:30pm 35.0 NE 9 22 1008.7 - 0.0 - - 10 - - - -
06/12:00pm 34.1 E 9 16 1009.1 - 0.0 - - 10 - - - -
06/11:30am 33.0 E 10 17 1009.9 - 0.0 - Partly cloudy 10 - - - -
06/11:00am 32.8 ESE 9 16 1010.5 - 0.0 - Partly cloudy 10 - - - -
06/10:30am 31.7 E 10 15 1011.0 - 0.0 - Partly cloudy 10 - - - -
06/10:00am 31.4 ESE 12 17 1011.2 - 0.0 - Partly cloudy 10 - - - -
06/09:30am 30.2 ESE 8 13 1011.5 - 0.0 - Partly cloudy 10 - - - -
06/09:00am 29.7 E 11 16 1011.5 S 0.0 Haze Clear 30 - - - -
06/08:30am 28.6 ESE 11 16 1011.7 - 0.0 - - 10 - - - -
06/08:00am 27.2 SE 7 11 1011.6 - 0.0 - - 10 - - - -
06/07:30am 25.8 SSE 5 7 1011.5 - 0.0 - - 10 - - - -
06/07:00am 24.7 SSE 3 5 1011.3 - 0.0 - - 10 - - - -
06/06:30am 23.5 CALM 0 2 1010.8 - 0.0 - - 10 - - - -
06/06:00am 23.0 CALM 0 0 1010.2 - 0.0 - - 10 - - - -
06/05:30am 23.4 CALM 0 1 1010.1 - 0.0 - - 10 - - - -
06/05:00am 23.5 SSE 1 3 1009.6 - 0.0 - - 10 - - - -
06/04:30am 23.5 CALM 0 0 1009.3 - 0.0 - - 10 - - - -
06/04:00am 24.2 SE 3 4 1009.1 - 0.0 - - 10 - - - -
06/03:30am 24.4 CALM 0 0 1008.9 - 0.0 - - 10 - - - -
06/03:00am 24.8 SE 1 2 1008.6 - 0.0 - - 10 - - - -
06/02:30am 25.2 E 2 3 1009.0 - 0.0 - Partly cloudy 10 - - - -
06/02:00am 25.6 ESE 3 4 1009.1 - 0.0 - Partly cloudy 10 - - - -
06/01:30am 26.0 E 3 4 1009.1 - 0.0 - - 10 - - - -
06/01:00am 26.4 ESE 4 7 1009.2 - 0.0 - - 10 - - - -
06/12:30am 26.7 ESE 6 8 1009.5 - 0.0 - - 10 - - - -
06/12:00am 27.0 ESE 7 11 1009.5 - 0.0 - - 10 - - - -
 
Date/Time
EST
Temp
°C
Wind Pressure Rain since
9am
mm
Weather Cloud Vis
km
Sea
Height
m
Swell
Dir  Spd
kts
Gust
kts
hPa Trend Height
m
Period
s
Dir
05/11:30pm 27.5 E 9 13 1009.9 - 0.0 - - 10 - - - -
05/11:00pm 27.9 E 9 14 1010.0 - 0.0 - - 10 - - - -
05/10:30pm 28.2 E 7 11 1009.9 - 0.0 - - 10 - - - -
05/10:00pm 28.6 ENE 7 10 1009.6 - 0.0 - - 10 - - - -
05/09:30pm 29.2 E 6 10 1009.3 - 0.0 - - 10 - - - -
05/09:00pm 29.8 E 7 12 1008.8 - 0.0 - - 10 - - - -
05/08:30pm 30.4 E 7 11 1008.7 - 0.0 - - 10 - - - -
05/08:00pm 31.0 E 10 17 1008.5 - 0.0 - - 10 - - - -
05/07:30pm 31.6 E 9 13 1008.0 - 0.0 - - 10 - - - -
05/07:00pm 32.4 E 9 16 1007.8 - 0.0 - - 10 - - - -
05/06:30pm 33.2 E 8 13 1007.4 - 0.0 - - 10 - - - -
05/06:00pm 33.8 E 9 13 1006.7 - 0.0 - - 10 - - - -
05/05:30pm 35.3 E 13 20 1006.4 - 0.0 - Partly cloudy 10 - - - -
05/05:00pm 35.5 E 14 19 1006.2 - 0.0 - Partly cloudy 10 - - - -
05/04:30pm 36.9 ESE 11 17 1006.0 - 0.0 - Partly cloudy 10 - - - -
05/04:00pm 35.5 E 11 16 1006.0 - 0.0 - Partly cloudy 10 - - - -
05/03:30pm 35.9 E 9 14 1006.2 - 0.0 - Partly cloudy 10 - - - -
05/03:00pm 36.9 E 10 17 1006.2 - 0.0 - Mostly clear 10 - - - -
05/02:30pm 36.6 E 11 19 1006.8 - 0.0 - - 10 - - - -
05/02:00pm 36.2 E 11 17 1007.0 - 0.0 - - 10 - - - -
05/01:30pm 36.6 E 13 19 1007.3 - 0.0 - Partly cloudy 10 - - - -
05/01:00pm 36.2 E 11 17 1007.7 - 0.0 - Partly cloudy 10 - - - -
05/12:30pm 35.2 E 10 18 1008.3 - 0.0 - Partly cloudy 10 - - - -
05/12:00pm 34.6 E 11 19 1008.6 - 0.0 - Mostly clear 10 - - - -
05/11:30am 33.4 E 11 17 1009.4 - 0.0 - Partly cloudy 10 - - - -
05/11:00am 33.2 E 12 20 1009.9 - 0.0 - Partly cloudy 10 - - - -
05/10:30am 32.2 E 12 17 1010.3 - 0.0 - Partly cloudy 10 - - - -
05/10:00am 31.2 ESE 13 16 1010.7 - 0.0 - Partly cloudy 10 - - - -
05/09:30am 30.7 E 13 18 1010.9 - 0.0 - Partly cloudy 10 - - - -
05/09:00am 29.6 ESE 12 17 1010.8 S 0.0 Haze Mostly clear 30 - - - -
05/08:30am 29.2 ESE 12 17 1011.1 - 0.0 - - 10 - - - -
05/08:00am 28.7 ESE 8 13 1010.9 - 0.0 - - 10 - - - -
05/07:30am 27.2 ESE 7 10 1010.9 - 0.0 - - 10 - - - -
05/07:00am 26.1 SE 5 9 1010.6 - 0.0 - - 10 - - - -
05/06:30am 25.0 SE 4 6 1010.2 - 0.0 - - 10 - - - -
05/06:00am 24.5 SE 3 5 1009.5 - 0.0 - - 10 - - - -
05/05:30am 24.7 ESE 3 4 1009.3 - 0.0 - - 10 - - - -
05/05:00am 24.8 ESE 4 6 1008.8 - 0.0 - - 10 - - - -
05/04:30am 24.9 ESE 4 6 1008.6 - 0.0 - - 10 - - - -

Other Formats:

Comma delimited format used in spreadsheet applications
http://www.bom.gov.au/fwo/IDQ60701/IDQ60701.94170.axf

JavaScript Object Notation format (JSON) in row-major order
http://www.bom.gov.au/fwo/IDQ60701/IDQ60701.94170.json